sensor_id;sensor_type;location;lat;lon;timestamp;P1;durP1;ratioP1;P2;durP2;ratioP2
29568;SDS011;16501;51.462;14.346;2022-12-18T00:01:40;62.55;;;19.33;;
29568;SDS011;16501;51.462;14.346;2022-12-18T00:04:06;60.45;;;20.48;;
29568;SDS011;16501;51.462;14.346;2022-12-18T00:06:33;61.33;;;19.90;;
29568;SDS011;16501;51.462;14.346;2022-12-18T00:09:00;57.15;;;19.00;;
29568;SDS011;16501;51.462;14.346;2022-12-18T00:11:28;69.22;;;21.92;;
29568;SDS011;16501;51.462;14.346;2022-12-18T00:13:57;70.80;;;21.27;;
29568;SDS011;16501;51.462;14.346;2022-12-18T00:16:25;63.35;;;19.48;;
29568;SDS011;16501;51.462;14.346;2022-12-18T00:18:54;59.10;;;19.20;;
29568;SDS011;16501;51.462;14.346;2022-12-18T00:21:21;70.18;;;20.10;;
29568;SDS011;16501;51.462;14.346;2022-12-18T00:23:49;65.30;;;20.10;;
29568;SDS011;16501;51.462;14.346;2022-12-18T00:26:16;57.22;;;19.33;;
29568;SDS011;16501;51.462;14.346;2022-12-18T00:28:43;64.72;;;20.25;;
29568;SDS011;16501;51.462;14.346;2022-12-18T00:31:10;60.00;;;19.73;;
29568;SDS011;16501;51.462;14.346;2022-12-18T00:33:38;61.80;;;19.02;;
29568;SDS011;16501;51.462;14.346;2022-12-18T00:36:06;66.07;;;20.63;;
29568;SDS011;16501;51.462;14.346;2022-12-18T00:38:36;63.90;;;19.58;;
29568;SDS011;16501;51.462;14.346;2022-12-18T00:41:02;63.47;;;20.63;;
29568;SDS011;16501;51.462;14.346;2022-12-18T00:43:27;57.83;;;20.30;;
29568;SDS011;16501;51.462;14.346;2022-12-18T00:45:53;57.13;;;19.92;;
29568;SDS011;16501;51.462;14.346;2022-12-18T00:48:20;63.45;;;20.85;;
29568;SDS011;16501;51.462;14.346;2022-12-18T00:50:47;70.50;;;20.33;;
29568;SDS011;16501;51.462;14.346;2022-12-18T00:53:12;67.75;;;18.88;;
29568;SDS011;16501;51.462;14.346;2022-12-18T00:55:41;62.50;;;21.70;;
29568;SDS011;16501;51.462;14.346;2022-12-18T00:58:07;65.32;;;20.73;;
29568;SDS011;16501;51.462;14.346;2022-12-18T01:00:34;61.95;;;19.45;;
29568;SDS011;16501;51.462;14.346;2022-12-18T01:03:01;76.18;;;20.92;;
29568;SDS011;16501;51.462;14.346;2022-12-18T01:05:26;76.90;;;21.45;;
29568;SDS011;16501;51.462;14.346;2022-12-18T01:07:52;69.97;;;21.63;;
29568;SDS011;16501;51.462;14.346;2022-12-18T01:10:17;63.08;;;19.75;;
29568;SDS011;16501;51.462;14.346;2022-12-18T01:12:43;76.72;;;22.98;;
29568;SDS011;16501;51.462;14.346;2022-12-18T01:15:09;59.13;;;19.08;;
29568;SDS011;16501;51.462;14.346;2022-12-18T01:17:35;62.25;;;18.38;;
29568;SDS011;16501;51.462;14.346;2022-12-18T01:20:00;68.97;;;20.40;;
29568;SDS011;16501;51.462;14.346;2022-12-18T01:22:25;49.90;;;17.77;;
29568;SDS011;16501;51.462;14.346;2022-12-18T01:24:51;63.90;;;20.40;;
29568;SDS011;16501;51.462;14.346;2022-12-18T01:27:16;58.28;;;18.77;;
29568;SDS011;16501;51.462;14.346;2022-12-18T01:29:41;69.28;;;19.27;;
29568;SDS011;16501;51.462;14.346;2022-12-18T01:32:07;65.00;;;20.40;;
29568;SDS011;16501;51.462;14.346;2022-12-18T01:34:33;61.22;;;18.67;;
29568;SDS011;16501;51.462;14.346;2022-12-18T01:37:01;45.25;;;17.23;;
29568;SDS011;16501;51.462;14.346;2022-12-18T01:39:28;56.53;;;17.92;;
29568;SDS011;16501;51.462;14.346;2022-12-18T01:41:57;56.47;;;18.25;;
29568;SDS011;16501;51.462;14.346;2022-12-18T01:48:09;56.25;;;17.60;;
29568;SDS011;16501;51.462;14.346;2022-12-18T01:50:40;57.15;;;18.52;;
29568;SDS011;16501;51.462;14.346;2022-12-18T01:55:57;49.45;;;16.40;;
29568;SDS011;16501;51.462;14.346;2022-12-18T01:58:26;49.72;;;16.73;;
29568;SDS011;16501;51.462;14.346;2022-12-18T02:00:58;49.42;;;17.77;;
29568;SDS011;16501;51.462;14.346;2022-12-18T02:03:24;54.22;;;17.02;;
29568;SDS011;16501;51.462;14.346;2022-12-18T02:05:52;45.85;;;16.63;;
29568;SDS011;16501;51.462;14.346;2022-12-18T02:14:38;42.78;;;13.98;;
29568;SDS011;16501;51.462;14.346;2022-12-18T02:17:34;37.58;;;14.70;;
29568;SDS011;16501;51.462;14.346;2022-12-18T02:23:11;47.55;;;16.48;;
29568;SDS011;16501;51.462;14.346;2022-12-18T02:28:40;51.28;;;15.45;;
29568;SDS011;16501;51.462;14.346;2022-12-18T02:31:11;49.50;;;15.70;;
29568;SDS011;16501;51.462;14.346;2022-12-18T02:33:42;48.83;;;17.23;;
29568;SDS011;16501;51.462;14.346;2022-12-18T02:36:09;48.97;;;16.33;;
29568;SDS011;16501;51.462;14.346;2022-12-18T02:38:38;56.95;;;17.95;;
29568;SDS011;16501;51.462;14.346;2022-12-18T02:41:05;46.88;;;17.52;;
29568;SDS011;16501;51.462;14.346;2022-12-18T02:43:31;57.67;;;18.10;;
29568;SDS011;16501;51.462;14.346;2022-12-18T02:45:58;53.90;;;17.52;;
29568;SDS011;16501;51.462;14.346;2022-12-18T02:48:27;42.13;;;15.52;;
29568;SDS011;16501;51.462;14.346;2022-12-18T02:51:06;59.38;;;19.02;;
29568;SDS011;16501;51.462;14.346;2022-12-18T02:54:09;58.45;;;17.33;;
29568;SDS011;16501;51.462;14.346;2022-12-18T02:56:37;52.10;;;16.58;;
29568;SDS011;16501;51.462;14.346;2022-12-18T02:59:15;51.35;;;16.77;;
29568;SDS011;16501;51.462;14.346;2022-12-18T03:01:52;53.60;;;17.50;;
29568;SDS011;16501;51.462;14.346;2022-12-18T03:04:25;45.20;;;16.70;;
29568;SDS011;16501;51.462;14.346;2022-12-18T03:07:15;49.22;;;16.25;;
29568;SDS011;16501;51.462;14.346;2022-12-18T03:09:46;43.80;;;16.83;;
29568;SDS011;16501;51.462;14.346;2022-12-18T03:12:19;40.95;;;15.07;;
29568;SDS011;16501;51.462;14.346;2022-12-18T03:17:27;41.90;;;14.85;;
29568;SDS011;16501;51.462;14.346;2022-12-18T03:19:56;62.10;;;16.15;;
29568;SDS011;16501;51.462;14.346;2022-12-18T03:22:26;37.30;;;13.90;;
29568;SDS011;16501;51.462;14.346;2022-12-18T03:24:55;39.25;;;14.63;;
29568;SDS011;16501;51.462;14.346;2022-12-18T03:27:22;44.13;;;15.88;;
29568;SDS011;16501;51.462;14.346;2022-12-18T03:35:37;39.70;;;13.00;;
29568;SDS011;16501;51.462;14.346;2022-12-18T03:38:05;30.25;;;11.95;;
29568;SDS011;16501;51.462;14.346;2022-12-18T03:40:34;31.75;;;12.40;;
29568;SDS011;16501;51.462;14.346;2022-12-18T03:43:20;25.75;;;11.88;;
29568;SDS011;16501;51.462;14.346;2022-12-18T03:46:01;37.33;;;12.80;;
29568;SDS011;16501;51.462;14.346;2022-12-18T03:48:31;36.13;;;12.18;;
29568;SDS011;16501;51.462;14.346;2022-12-18T03:51:14;30.00;;;11.93;;
29568;SDS011;16501;51.462;14.346;2022-12-18T03:53:55;34.53;;;12.60;;
29568;SDS011;16501;51.462;14.346;2022-12-18T03:56:25;32.50;;;12.65;;
29568;SDS011;16501;51.462;14.346;2022-12-18T03:58:58;35.70;;;13.32;;
29568;SDS011;16501;51.462;14.346;2022-12-18T04:01:38;37.40;;;13.30;;
29568;SDS011;16501;51.462;14.346;2022-12-18T04:04:07;31.52;;;12.50;;
29568;SDS011;16501;51.462;14.346;2022-12-18T04:06:34;31.02;;;12.10;;
29568;SDS011;16501;51.462;14.346;2022-12-18T04:09:01;30.40;;;12.15;;
29568;SDS011;16501;51.462;14.346;2022-12-18T04:11:27;31.75;;;11.73;;
29568;SDS011;16501;51.462;14.346;2022-12-18T04:13:57;31.13;;;12.05;;
29568;SDS011;16501;51.462;14.346;2022-12-18T04:16:25;35.78;;;11.77;;
29568;SDS011;16501;51.462;14.346;2022-12-18T04:18:51;30.98;;;11.85;;
29568;SDS011;16501;51.462;14.346;2022-12-18T04:21:17;28.38;;;11.43;;
29568;SDS011;16501;51.462;14.346;2022-12-18T04:23:45;32.42;;;11.95;;
29568;SDS011;16501;51.462;14.346;2022-12-18T04:26:11;32.30;;;12.13;;
29568;SDS011;16501;51.462;14.346;2022-12-18T04:28:36;24.90;;;10.85;;
29568;SDS011;16501;51.462;14.346;2022-12-18T04:31:02;28.95;;;11.82;;
29568;SDS011;16501;51.462;14.346;2022-12-18T04:33:27;26.15;;;11.10;;
29568;SDS011;16501;51.462;14.346;2022-12-18T04:35:54;31.77;;;12.13;;
29568;SDS011;16501;51.462;14.346;2022-12-18T04:38:19;27.13;;;11.18;;
29568;SDS011;16501;51.462;14.346;2022-12-18T04:40:45;30.90;;;11.90;;
29568;SDS011;16501;51.462;14.346;2022-12-18T04:43:11;30.00;;;11.77;;
29568;SDS011;16501;51.462;14.346;2022-12-18T04:45:36;32.63;;;12.43;;
29568;SDS011;16501;51.462;14.346;2022-12-18T04:48:02;27.30;;;11.30;;
29568;SDS011;16501;51.462;14.346;2022-12-18T04:50:29;31.33;;;12.10;;
29568;SDS011;16501;51.462;14.346;2022-12-18T04:52:56;28.20;;;11.15;;
29568;SDS011;16501;51.462;14.346;2022-12-18T04:55:24;28.40;;;10.88;;
29568;SDS011;16501;51.462;14.346;2022-12-18T04:57:50;28.30;;;10.10;;
29568;SDS011;16501;51.462;14.346;2022-12-18T05:00:16;29.45;;;11.80;;
29568;SDS011;16501;51.462;14.346;2022-12-18T05:02:41;32.78;;;11.40;;
29568;SDS011;16501;51.462;14.346;2022-12-18T05:05:06;28.70;;;10.80;;
29568;SDS011;16501;51.462;14.346;2022-12-18T05:07:32;28.50;;;11.80;;
29568;SDS011;16501;51.462;14.346;2022-12-18T05:09:58;30.20;;;12.65;;
29568;SDS011;16501;51.462;14.346;2022-12-18T05:12:23;30.90;;;12.85;;
29568;SDS011;16501;51.462;14.346;2022-12-18T05:14:49;30.60;;;11.45;;
29568;SDS011;16501;51.462;14.346;2022-12-18T05:17:14;36.95;;;12.55;;
29568;SDS011;16501;51.462;14.346;2022-12-18T05:19:40;31.55;;;11.73;;
29568;SDS011;16501;51.462;14.346;2022-12-18T05:22:06;26.98;;;11.27;;
29568;SDS011;16501;51.462;14.346;2022-12-18T05:24:33;28.55;;;11.40;;
29568;SDS011;16501;51.462;14.346;2022-12-18T05:26:58;29.73;;;11.25;;
29568;SDS011;16501;51.462;14.346;2022-12-18T05:29:23;30.27;;;13.13;;
29568;SDS011;16501;51.462;14.346;2022-12-18T05:31:49;30.48;;;12.95;;
29568;SDS011;16501;51.462;14.346;2022-12-18T05:34:14;33.60;;;12.05;;
29568;SDS011;16501;51.462;14.346;2022-12-18T05:36:39;36.08;;;13.77;;
29568;SDS011;16501;51.462;14.346;2022-12-18T05:39:05;33.40;;;12.05;;
29568;SDS011;16501;51.462;14.346;2022-12-18T05:41:31;36.92;;;13.98;;
29568;SDS011;16501;51.462;14.346;2022-12-18T05:43:56;33.13;;;12.43;;
29568;SDS011;16501;51.462;14.346;2022-12-18T05:46:21;40.28;;;13.50;;
29568;SDS011;16501;51.462;14.346;2022-12-18T05:48:46;35.75;;;14.80;;
29568;SDS011;16501;51.462;14.346;2022-12-18T05:51:14;30.92;;;11.95;;
29568;SDS011;16501;51.462;14.346;2022-12-18T05:53:41;32.85;;;12.43;;
29568;SDS011;16501;51.462;14.346;2022-12-18T05:56:08;32.78;;;12.45;;
29568;SDS011;16501;51.462;14.346;2022-12-18T05:58:38;30.95;;;12.13;;
29568;SDS011;16501;51.462;14.346;2022-12-18T06:01:11;34.13;;;12.85;;
29568;SDS011;16501;51.462;14.346;2022-12-18T06:03:42;30.50;;;12.63;;
29568;SDS011;16501;51.462;14.346;2022-12-18T06:06:13;29.98;;;12.43;;
29568;SDS011;16501;51.462;14.346;2022-12-18T06:08:40;28.80;;;12.82;;
29568;SDS011;16501;51.462;14.346;2022-12-18T06:11:06;28.88;;;11.85;;
29568;SDS011;16501;51.462;14.346;2022-12-18T06:13:31;26.25;;;12.15;;
29568;SDS011;16501;51.462;14.346;2022-12-18T06:15:58;27.85;;;12.57;;
29568;SDS011;16501;51.462;14.346;2022-12-18T06:18:26;30.40;;;11.77;;
29568;SDS011;16501;51.462;14.346;2022-12-18T06:20:58;34.75;;;12.27;;
29568;SDS011;16501;51.462;14.346;2022-12-18T06:23:24;27.50;;;11.10;;
29568;SDS011;16501;51.462;14.346;2022-12-18T06:25:49;29.08;;;11.95;;
29568;SDS011;16501;51.462;14.346;2022-12-18T06:28:16;33.50;;;12.73;;
29568;SDS011;16501;51.462;14.346;2022-12-18T06:30:45;29.85;;;12.02;;
29568;SDS011;16501;51.462;14.346;2022-12-18T06:33:11;31.33;;;12.07;;
29568;SDS011;16501;51.462;14.346;2022-12-18T06:35:37;34.03;;;11.43;;
29568;SDS011;16501;51.462;14.346;2022-12-18T06:38:02;35.15;;;14.32;;
29568;SDS011;16501;51.462;14.346;2022-12-18T06:40:28;29.55;;;11.35;;
29568;SDS011;16501;51.462;14.346;2022-12-18T06:42:53;35.97;;;12.80;;
29568;SDS011;16501;51.462;14.346;2022-12-18T06:45:19;31.42;;;12.30;;
29568;SDS011;16501;51.462;14.346;2022-12-18T06:47:44;33.83;;;11.68;;
29568;SDS011;16501;51.462;14.346;2022-12-18T06:50:12;34.60;;;12.75;;
29568;SDS011;16501;51.462;14.346;2022-12-18T06:52:37;35.70;;;13.98;;
29568;SDS011;16501;51.462;14.346;2022-12-18T06:55:04;31.35;;;12.95;;
29568;SDS011;16501;51.462;14.346;2022-12-18T06:57:30;35.95;;;12.73;;
29568;SDS011;16501;51.462;14.346;2022-12-18T06:59:57;32.40;;;13.52;;
29568;SDS011;16501;51.462;14.346;2022-12-18T07:02:24;39.55;;;14.25;;
29568;SDS011;16501;51.462;14.346;2022-12-18T07:04:49;39.95;;;13.77;;
29568;SDS011;16501;51.462;14.346;2022-12-18T07:07:14;33.40;;;13.30;;
29568;SDS011;16501;51.462;14.346;2022-12-18T07:09:40;24.65;;;9.25;;
29568;SDS011;16501;51.462;14.346;2022-12-18T07:12:05;30.48;;;12.55;;
29568;SDS011;16501;51.462;14.346;2022-12-18T07:14:32;34.88;;;14.25;;
29568;SDS011;16501;51.462;14.346;2022-12-18T07:16:58;33.72;;;13.95;;
29568;SDS011;16501;51.462;14.346;2022-12-18T07:19:23;35.47;;;13.00;;
29568;SDS011;16501;51.462;14.346;2022-12-18T07:21:49;34.88;;;13.07;;
29568;SDS011;16501;51.462;14.346;2022-12-18T07:24:15;39.22;;;15.10;;
29568;SDS011;16501;51.462;14.346;2022-12-18T07:26:41;33.17;;;12.73;;
29568;SDS011;16501;51.462;14.346;2022-12-18T07:29:07;33.13;;;13.57;;
29568;SDS011;16501;51.462;14.346;2022-12-18T07:31:33;28.73;;;11.25;;
29568;SDS011;16501;51.462;14.346;2022-12-18T07:33:58;33.22;;;12.18;;
29568;SDS011;16501;51.462;14.346;2022-12-18T07:36:24;29.55;;;11.75;;
29568;SDS011;16501;51.462;14.346;2022-12-18T07:38:51;33.13;;;12.52;;
29568;SDS011;16501;51.462;14.346;2022-12-18T07:41:17;26.80;;;9.90;;
29568;SDS011;16501;51.462;14.346;2022-12-18T07:43:44;25.70;;;10.15;;
29568;SDS011;16501;51.462;14.346;2022-12-18T07:46:09;30.02;;;11.80;;
29568;SDS011;16501;51.462;14.346;2022-12-18T07:48:35;30.33;;;11.57;;
29568;SDS011;16501;51.462;14.346;2022-12-18T07:51:02;25.85;;;10.80;;
29568;SDS011;16501;51.462;14.346;2022-12-18T07:53:31;25.85;;;9.75;;
29568;SDS011;16501;51.462;14.346;2022-12-18T07:56:05;28.25;;;11.20;;
29568;SDS011;16501;51.462;14.346;2022-12-18T07:58:34;30.05;;;11.23;;
29568;SDS011;16501;51.462;14.346;2022-12-18T08:01:04;33.80;;;12.32;;
29568;SDS011;16501;51.462;14.346;2022-12-18T08:03:30;31.25;;;11.10;;
29568;SDS011;16501;51.462;14.346;2022-12-18T08:06:01;30.73;;;11.43;;
29568;SDS011;16501;51.462;14.346;2022-12-18T08:08:32;28.08;;;11.00;;
29568;SDS011;16501;51.462;14.346;2022-12-18T08:11:01;31.10;;;12.32;;
29568;SDS011;16501;51.462;14.346;2022-12-18T08:13:27;31.48;;;12.77;;
29568;SDS011;16501;51.462;14.346;2022-12-18T08:15:57;33.58;;;14.48;;
29568;SDS011;16501;51.462;14.346;2022-12-18T08:18:25;32.08;;;13.65;;
29568;SDS011;16501;51.462;14.346;2022-12-18T08:20:51;35.17;;;13.80;;
29568;SDS011;16501;51.462;14.346;2022-12-18T08:23:17;39.92;;;14.82;;
29568;SDS011;16501;51.462;14.346;2022-12-18T08:25:43;40.67;;;16.27;;
29568;SDS011;16501;51.462;14.346;2022-12-18T08:28:09;29.20;;;11.65;;
29568;SDS011;16501;51.462;14.346;2022-12-18T08:30:35;45.35;;;15.00;;
29568;SDS011;16501;51.462;14.346;2022-12-18T08:33:03;46.05;;;15.50;;
29568;SDS011;16501;51.462;14.346;2022-12-18T08:35:37;38.83;;;14.02;;
29568;SDS011;16501;51.462;14.346;2022-12-18T08:38:03;33.40;;;12.57;;
29568;SDS011;16501;51.462;14.346;2022-12-18T08:40:29;33.08;;;12.65;;
29568;SDS011;16501;51.462;14.346;2022-12-18T08:42:54;37.88;;;14.00;;
29568;SDS011;16501;51.462;14.346;2022-12-18T08:45:38;28.70;;;11.55;;
29568;SDS011;16501;51.462;14.346;2022-12-18T08:48:05;23.10;;;9.30;;
29568;SDS011;16501;51.462;14.346;2022-12-18T08:50:30;23.48;;;9.70;;
29568;SDS011;16501;51.462;14.346;2022-12-18T08:52:56;23.48;;;10.70;;
29568;SDS011;16501;51.462;14.346;2022-12-18T08:55:21;26.05;;;11.60;;
29568;SDS011;16501;51.462;14.346;2022-12-18T08:57:48;32.15;;;13.68;;
29568;SDS011;16501;51.462;14.346;2022-12-18T09:00:14;27.05;;;10.23;;
29568;SDS011;16501;51.462;14.346;2022-12-18T09:02:40;43.83;;;18.83;;
29568;SDS011;16501;51.462;14.346;2022-12-18T09:05:05;26.95;;;10.63;;
29568;SDS011;16501;51.462;14.346;2022-12-18T09:07:31;24.50;;;9.73;;
29568;SDS011;16501;51.462;14.346;2022-12-18T09:09:56;28.90;;;12.68;;
29568;SDS011;16501;51.462;14.346;2022-12-18T09:12:22;32.10;;;12.77;;
29568;SDS011;16501;51.462;14.346;2022-12-18T09:14:47;37.17;;;15.43;;
29568;SDS011;16501;51.462;14.346;2022-12-18T09:17:12;31.20;;;14.55;;
29568;SDS011;16501;51.462;14.346;2022-12-18T09:19:38;28.63;;;12.60;;
29568;SDS011;16501;51.462;14.346;2022-12-18T09:22:03;34.17;;;14.18;;
29568;SDS011;16501;51.462;14.346;2022-12-18T09:24:29;33.08;;;15.13;;
29568;SDS011;16501;51.462;14.346;2022-12-18T09:26:54;32.40;;;14.30;;
29568;SDS011;16501;51.462;14.346;2022-12-18T09:29:20;28.38;;;12.48;;
29568;SDS011;16501;51.462;14.346;2022-12-18T09:31:47;26.80;;;12.15;;
29568;SDS011;16501;51.462;14.346;2022-12-18T09:34:13;25.50;;;11.85;;
29568;SDS011;16501;51.462;14.346;2022-12-18T09:36:39;22.17;;;10.60;;
29568;SDS011;16501;51.462;14.346;2022-12-18T09:39:04;25.95;;;10.52;;
29568;SDS011;16501;51.462;14.346;2022-12-18T09:49:35;35.67;;;14.68;;
29568;SDS011;16501;51.462;14.346;2022-12-18T09:54:58;27.92;;;12.13;;
29568;SDS011;16501;51.462;14.346;2022-12-18T09:57:28;27.58;;;12.45;;
29568;SDS011;16501;51.462;14.346;2022-12-18T10:00:02;32.00;;;14.10;;
29568;SDS011;16501;51.462;14.346;2022-12-18T10:02:34;34.65;;;15.98;;
29568;SDS011;16501;51.462;14.346;2022-12-18T10:07:38;21.45;;;9.98;;
29568;SDS011;16501;51.462;14.346;2022-12-18T10:13:15;24.90;;;10.90;;
29568;SDS011;16501;51.462;14.346;2022-12-18T10:21:15;31.40;;;15.60;;
29568;SDS011;16501;51.462;14.346;2022-12-18T10:24:23;26.20;;;12.45;;
29568;SDS011;16501;51.462;14.346;2022-12-18T10:26:50;24.75;;;12.48;;
29568;SDS011;16501;51.462;14.346;2022-12-18T10:29:19;25.70;;;12.80;;
29568;SDS011;16501;51.462;14.346;2022-12-18T10:31:44;19.52;;;9.75;;
29568;SDS011;16501;51.462;14.346;2022-12-18T10:34:11;20.70;;;9.75;;
29568;SDS011;16501;51.462;14.346;2022-12-18T10:36:40;24.35;;;10.95;;
29568;SDS011;16501;51.462;14.346;2022-12-18T10:39:15;28.05;;;12.63;;
29568;SDS011;16501;51.462;14.346;2022-12-18T10:41:41;26.67;;;11.77;;
29568;SDS011;16501;51.462;14.346;2022-12-18T10:44:18;27.08;;;11.52;;
29568;SDS011;16501;51.462;14.346;2022-12-18T10:46:49;18.08;;;9.65;;
29568;SDS011;16501;51.462;14.346;2022-12-18T10:49:27;26.75;;;12.07;;
29568;SDS011;16501;51.462;14.346;2022-12-18T10:55:01;26.20;;;11.05;;
29568;SDS011;16501;51.462;14.346;2022-12-18T10:57:33;22.75;;;9.70;;
29568;SDS011;16501;51.462;14.346;2022-12-18T11:02:52;23.50;;;9.73;;
29568;SDS011;16501;51.462;14.346;2022-12-18T11:07:51;23.40;;;11.13;;
29568;SDS011;16501;51.462;14.346;2022-12-18T11:10:20;19.88;;;10.80;;
29568;SDS011;16501;51.462;14.346;2022-12-18T11:12:47;27.58;;;12.38;;
29568;SDS011;16501;51.462;14.346;2022-12-18T11:15:18;25.00;;;10.48;;
29568;SDS011;16501;51.462;14.346;2022-12-18T11:18:16;23.85;;;11.98;;
29568;SDS011;16501;51.462;14.346;2022-12-18T11:20:57;28.58;;;11.77;;
29568;SDS011;16501;51.462;14.346;2022-12-18T11:23:31;20.42;;;10.15;;
29568;SDS011;16501;51.462;14.346;2022-12-18T11:26:00;26.83;;;11.40;;
29568;SDS011;16501;51.462;14.346;2022-12-18T11:28:36;24.38;;;11.48;;
29568;SDS011;16501;51.462;14.346;2022-12-18T11:31:12;22.75;;;10.15;;
29568;SDS011;16501;51.462;14.346;2022-12-18T11:33:44;27.88;;;12.25;;
29568;SDS011;16501;51.462;14.346;2022-12-18T11:36:17;22.95;;;9.93;;
29568;SDS011;16501;51.462;14.346;2022-12-18T11:38:46;18.70;;;9.02;;
29568;SDS011;16501;51.462;14.346;2022-12-18T11:44:26;21.80;;;10.43;;
29568;SDS011;16501;51.462;14.346;2022-12-18T11:49:48;28.90;;;12.80;;
29568;SDS011;16501;51.462;14.346;2022-12-18T11:52:16;23.10;;;11.88;;
29568;SDS011;16501;51.462;14.346;2022-12-18T11:54:46;20.90;;;9.35;;
29568;SDS011;16501;51.462;14.346;2022-12-18T11:57:36;21.02;;;9.30;;
29568;SDS011;16501;51.462;14.346;2022-12-18T12:02:57;16.80;;;8.55;;
29568;SDS011;16501;51.462;14.346;2022-12-18T12:17:34;19.75;;;8.82;;
29568;SDS011;16501;51.462;14.346;2022-12-18T12:30:48;18.03;;;8.10;;
29568;SDS011;16501;51.462;14.346;2022-12-18T12:33:45;17.63;;;8.10;;
29568;SDS011;16501;51.462;14.346;2022-12-18T12:39:06;16.42;;;8.45;;
29568;SDS011;16501;51.462;14.346;2022-12-18T12:41:37;17.08;;;7.60;;
29568;SDS011;16501;51.462;14.346;2022-12-18T12:46:55;17.17;;;8.80;;
29568;SDS011;16501;51.462;14.346;2022-12-18T12:49:26;15.70;;;8.23;;
29568;SDS011;16501;51.462;14.346;2022-12-18T12:52:00;18.05;;;9.05;;
29568;SDS011;16501;51.462;14.346;2022-12-18T12:54:32;22.60;;;9.25;;
29568;SDS011;16501;51.462;14.346;2022-12-18T12:57:06;18.35;;;8.60;;
29568;SDS011;16501;51.462;14.346;2022-12-18T12:59:38;19.23;;;9.05;;
29568;SDS011;16501;51.462;14.346;2022-12-18T13:02:39;19.52;;;9.30;;
29568;SDS011;16501;51.462;14.346;2022-12-18T13:08:03;22.52;;;8.75;;
29568;SDS011;16501;51.462;14.346;2022-12-18T13:10:33;23.13;;;10.05;;
29568;SDS011;16501;51.462;14.346;2022-12-18T13:13:15;24.13;;;10.73;;
29568;SDS011;16501;51.462;14.346;2022-12-18T13:15:48;20.88;;;10.02;;
29568;SDS011;16501;51.462;14.346;2022-12-18T13:18:28;26.27;;;10.40;;
29568;SDS011;16501;51.462;14.346;2022-12-18T13:25:55;20.08;;;9.90;;
29568;SDS011;16501;51.462;14.346;2022-12-18T13:34:39;25.45;;;10.90;;
29568;SDS011;16501;51.462;14.346;2022-12-18T13:39:58;22.45;;;9.95;;
29568;SDS011;16501;51.462;14.346;2022-12-18T13:48:03;31.58;;;12.60;;
29568;SDS011;16501;51.462;14.346;2022-12-18T13:50:29;29.75;;;12.32;;
29568;SDS011;16501;51.462;14.346;2022-12-18T13:52:56;29.02;;;11.35;;
29568;SDS011;16501;51.462;14.346;2022-12-18T13:55:22;23.27;;;10.98;;
29568;SDS011;16501;51.462;14.346;2022-12-18T13:57:48;25.65;;;10.38;;
29568;SDS011;16501;51.462;14.346;2022-12-18T14:02:50;33.20;;;14.65;;
29568;SDS011;16501;51.462;14.346;2022-12-18T14:05:26;30.55;;;14.15;;
29568;SDS011;16501;51.462;14.346;2022-12-18T14:08:07;30.40;;;14.10;;
29568;SDS011;16501;51.462;14.346;2022-12-18T14:10:35;40.58;;;18.20;;
29568;SDS011;16501;51.462;14.346;2022-12-18T14:13:06;40.20;;;18.98;;
29568;SDS011;16501;51.462;14.346;2022-12-18T14:15:40;38.80;;;19.67;;
29568;SDS011;16501;51.462;14.346;2022-12-18T14:18:19;33.58;;;15.77;;
29568;SDS011;16501;51.462;14.346;2022-12-18T14:20:45;30.95;;;14.45;;
29568;SDS011;16501;51.462;14.346;2022-12-18T14:25:55;57.67;;;23.15;;
29568;SDS011;16501;51.462;14.346;2022-12-18T14:28:21;63.13;;;29.33;;
29568;SDS011;16501;51.462;14.346;2022-12-18T14:30:47;108.60;;;43.20;;
29568;SDS011;16501;51.462;14.346;2022-12-18T14:33:14;81.43;;;35.22;;
29568;SDS011;16501;51.462;14.346;2022-12-18T14:35:51;64.43;;;28.52;;
29568;SDS011;16501;51.462;14.346;2022-12-18T14:38:25;47.60;;;21.85;;
29568;SDS011;16501;51.462;14.346;2022-12-18T14:40:57;62.10;;;26.73;;
29568;SDS011;16501;51.462;14.346;2022-12-18T14:43:27;58.28;;;24.80;;
29568;SDS011;16501;51.462;14.346;2022-12-18T14:45:56;53.38;;;22.98;;
29568;SDS011;16501;51.462;14.346;2022-12-18T14:51:03;41.72;;;19.48;;
29568;SDS011;16501;51.462;14.346;2022-12-18T14:53:35;33.85;;;16.92;;
29568;SDS011;16501;51.462;14.346;2022-12-18T14:56:10;46.70;;;18.52;;
29568;SDS011;16501;51.462;14.346;2022-12-18T14:58:45;38.38;;;16.70;;
29568;SDS011;16501;51.462;14.346;2022-12-18T15:01:19;33.03;;;15.83;;
29568;SDS011;16501;51.462;14.346;2022-12-18T15:03:50;35.17;;;15.35;;
29568;SDS011;16501;51.462;14.346;2022-12-18T15:06:18;43.25;;;18.08;;
29568;SDS011;16501;51.462;14.346;2022-12-18T15:08:51;43.35;;;17.90;;
29568;SDS011;16501;51.462;14.346;2022-12-18T15:11:27;42.83;;;16.83;;
29568;SDS011;16501;51.462;14.346;2022-12-18T15:13:59;37.60;;;17.23;;
29568;SDS011;16501;51.462;14.346;2022-12-18T15:16:49;40.00;;;15.40;;
29568;SDS011;16501;51.462;14.346;2022-12-18T15:19:15;44.92;;;17.60;;
29568;SDS011;16501;51.462;14.346;2022-12-18T15:21:43;37.47;;;15.85;;
29568;SDS011;16501;51.462;14.346;2022-12-18T15:24:16;33.67;;;13.98;;
29568;SDS011;16501;51.462;14.346;2022-12-18T15:26:46;36.20;;;14.75;;
29568;SDS011;16501;51.462;14.346;2022-12-18T15:29:20;37.33;;;14.18;;
29568;SDS011;16501;51.462;14.346;2022-12-18T15:32:03;38.85;;;13.57;;
29568;SDS011;16501;51.462;14.346;2022-12-18T15:34:40;34.53;;;14.02;;
29568;SDS011;16501;51.462;14.346;2022-12-18T15:37:07;37.58;;;14.02;;
29568;SDS011;16501;51.462;14.346;2022-12-18T15:39:32;36.63;;;14.20;;
29568;SDS011;16501;51.462;14.346;2022-12-18T15:42:00;35.90;;;14.80;;
29568;SDS011;16501;51.462;14.346;2022-12-18T15:45:00;30.98;;;13.68;;
29568;SDS011;16501;51.462;14.346;2022-12-18T15:47:25;36.85;;;14.50;;
29568;SDS011;16501;51.462;14.346;2022-12-18T15:49:51;42.80;;;17.65;;
29568;SDS011;16501;51.462;14.346;2022-12-18T15:52:16;45.92;;;18.45;;
29568;SDS011;16501;51.462;14.346;2022-12-18T15:54:51;46.10;;;18.23;;
29568;SDS011;16501;51.462;14.346;2022-12-18T15:57:35;54.17;;;19.15;;
29568;SDS011;16501;51.462;14.346;2022-12-18T16:00:01;47.03;;;18.95;;
29568;SDS011;16501;51.462;14.346;2022-12-18T16:02:26;63.45;;;22.77;;
29568;SDS011;16501;51.462;14.346;2022-12-18T16:04:53;84.50;;;29.42;;
29568;SDS011;16501;51.462;14.346;2022-12-18T16:07:19;71.05;;;26.42;;
29568;SDS011;16501;51.462;14.346;2022-12-18T16:09:47;74.05;;;26.52;;
29568;SDS011;16501;51.462;14.346;2022-12-18T16:12:17;75.13;;;26.58;;
29568;SDS011;16501;51.462;14.346;2022-12-18T16:14:45;76.63;;;27.15;;
29568;SDS011;16501;51.462;14.346;2022-12-18T16:17:13;45.55;;;19.60;;
29568;SDS011;16501;51.462;14.346;2022-12-18T16:19:43;45.20;;;17.35;;
29568;SDS011;16501;51.462;14.346;2022-12-18T16:22:17;47.17;;;17.75;;
29568;SDS011;16501;51.462;14.346;2022-12-18T16:24:45;68.10;;;23.13;;
29568;SDS011;16501;51.462;14.346;2022-12-18T16:27:11;48.42;;;19.17;;
29568;SDS011;16501;51.462;14.346;2022-12-18T16:29:37;70.40;;;25.27;;